sensor_id;sensor_type;location;lat;lon;timestamp;P1;durP1;ratioP1;P2;durP2;ratioP2
40503;SDS011;42292;49.048;8.374;2022-08-21T00:02:02;5.57;;;2.10;;
40503;SDS011;42292;49.048;8.374;2022-08-21T00:04:29;7.38;;;2.65;;
40503;SDS011;42292;49.048;8.374;2022-08-21T00:06:59;6.83;;;2.67;;
40503;SDS011;42292;49.048;8.374;2022-08-21T00:09:25;3.72;;;2.03;;
40503;SDS011;42292;49.048;8.374;2022-08-21T00:11:51;4.85;;;1.92;;
40503;SDS011;42292;49.048;8.374;2022-08-21T00:14:19;5.23;;;2.07;;
40503;SDS011;42292;49.048;8.374;2022-08-21T00:16:45;5.93;;;2.60;;
40503;SDS011;42292;49.048;8.374;2022-08-21T00:19:11;5.50;;;2.37;;
40503;SDS011;42292;49.048;8.374;2022-08-21T00:21:39;4.50;;;1.88;;
40503;SDS011;42292;49.048;8.374;2022-08-21T00:24:07;4.33;;;1.97;;
40503;SDS011;42292;49.048;8.374;2022-08-21T00:26:33;3.78;;;2.00;;
40503;SDS011;42292;49.048;8.374;2022-08-21T00:28:59;5.30;;;1.97;;
40503;SDS011;42292;49.048;8.374;2022-08-21T00:31:27;6.40;;;2.17;;
40503;SDS011;42292;49.048;8.374;2022-08-21T00:33:55;3.53;;;2.00;;
40503;SDS011;42292;49.048;8.374;2022-08-21T00:36:20;6.32;;;2.20;;
40503;SDS011;42292;49.048;8.374;2022-08-21T00:38:46;5.53;;;2.47;;
40503;SDS011;42292;49.048;8.374;2022-08-21T00:41:16;5.00;;;2.23;;
40503;SDS011;42292;49.048;8.374;2022-08-21T00:43:44;7.38;;;2.75;;
40503;SDS011;42292;49.048;8.374;2022-08-21T00:46:12;4.80;;;2.15;;
40503;SDS011;42292;49.048;8.374;2022-08-21T00:48:40;6.77;;;2.27;;
40503;SDS011;42292;49.048;8.374;2022-08-21T00:51:17;7.57;;;2.27;;
40503;SDS011;42292;49.048;8.374;2022-08-21T00:53:58;4.63;;;1.97;;
40503;SDS011;42292;49.048;8.374;2022-08-21T00:56:25;5.47;;;2.50;;
40503;SDS011;42292;49.048;8.374;2022-08-21T00:58:52;4.78;;;1.85;;
40503;SDS011;42292;49.048;8.374;2022-08-21T01:01:19;5.53;;;2.42;;
40503;SDS011;42292;49.048;8.374;2022-08-21T01:03:49;5.32;;;2.35;;
40503;SDS011;42292;49.048;8.374;2022-08-21T01:06:15;3.30;;;2.10;;
40503;SDS011;42292;49.048;8.374;2022-08-21T01:08:43;6.07;;;2.42;;
40503;SDS011;42292;49.048;8.374;2022-08-21T01:11:09;6.53;;;2.53;;
40503;SDS011;42292;49.048;8.374;2022-08-21T01:13:36;5.35;;;2.40;;
40503;SDS011;42292;49.048;8.374;2022-08-21T01:16:10;4.30;;;2.10;;
40503;SDS011;42292;49.048;8.374;2022-08-21T01:18:36;4.15;;;2.33;;
40503;SDS011;42292;49.048;8.374;2022-08-21T01:23:35;3.85;;;2.47;;
40503;SDS011;42292;49.048;8.374;2022-08-21T01:26:03;4.38;;;2.40;;
40503;SDS011;42292;49.048;8.374;2022-08-21T01:28:30;4.97;;;2.53;;
40503;SDS011;42292;49.048;8.374;2022-08-21T01:31:01;4.25;;;2.55;;
40503;SDS011;42292;49.048;8.374;2022-08-21T01:33:30;4.93;;;2.58;;
40503;SDS011;42292;49.048;8.374;2022-08-21T01:35:58;5.87;;;2.80;;
40503;SDS011;42292;49.048;8.374;2022-08-21T01:38:24;4.18;;;2.50;;
40503;SDS011;42292;49.048;8.374;2022-08-21T01:40:50;25.95;;;3.33;;
40503;SDS011;42292;49.048;8.374;2022-08-21T01:43:21;5.75;;;2.72;;
40503;SDS011;42292;49.048;8.374;2022-08-21T01:45:47;6.27;;;2.93;;
40503;SDS011;42292;49.048;8.374;2022-08-21T01:48:13;5.88;;;2.55;;
40503;SDS011;42292;49.048;8.374;2022-08-21T01:50:38;5.28;;;2.53;;
40503;SDS011;42292;49.048;8.374;2022-08-21T01:53:04;5.22;;;2.80;;
40503;SDS011;42292;49.048;8.374;2022-08-21T01:55:32;6.80;;;2.53;;
40503;SDS011;42292;49.048;8.374;2022-08-21T01:57:58;6.38;;;2.53;;
40503;SDS011;42292;49.048;8.374;2022-08-21T02:00:24;5.70;;;2.67;;
40503;SDS011;42292;49.048;8.374;2022-08-21T02:02:52;6.82;;;2.75;;
40503;SDS011;42292;49.048;8.374;2022-08-21T02:05:18;3.90;;;2.40;;
40503;SDS011;42292;49.048;8.374;2022-08-21T02:07:45;6.15;;;2.42;;
40503;SDS011;42292;49.048;8.374;2022-08-21T02:10:15;7.72;;;2.60;;
40503;SDS011;42292;49.048;8.374;2022-08-21T02:12:44;5.00;;;2.33;;
40503;SDS011;42292;49.048;8.374;2022-08-21T02:15:14;6.90;;;3.05;;
40503;SDS011;42292;49.048;8.374;2022-08-21T02:17:42;6.25;;;2.60;;
40503;SDS011;42292;49.048;8.374;2022-08-21T02:20:11;5.50;;;2.75;;
40503;SDS011;42292;49.048;8.374;2022-08-21T02:22:40;5.70;;;2.78;;
40503;SDS011;42292;49.048;8.374;2022-08-21T02:25:06;5.53;;;2.93;;
40503;SDS011;42292;49.048;8.374;2022-08-21T02:27:37;5.03;;;2.60;;
40503;SDS011;42292;49.048;8.374;2022-08-21T02:30:07;5.43;;;2.70;;
40503;SDS011;42292;49.048;8.374;2022-08-21T02:32:37;5.45;;;2.97;;
40503;SDS011;42292;49.048;8.374;2022-08-21T02:35:03;5.57;;;3.00;;
40503;SDS011;42292;49.048;8.374;2022-08-21T02:37:29;5.57;;;2.90;;
40503;SDS011;42292;49.048;8.374;2022-08-21T02:39:58;7.40;;;3.60;;
40503;SDS011;42292;49.048;8.374;2022-08-21T02:42:26;6.03;;;3.03;;
40503;SDS011;42292;49.048;8.374;2022-08-21T02:44:52;5.20;;;2.67;;
40503;SDS011;42292;49.048;8.374;2022-08-21T02:47:18;5.67;;;3.00;;
40503;SDS011;42292;49.048;8.374;2022-08-21T02:49:43;5.03;;;2.53;;
40503;SDS011;42292;49.048;8.374;2022-08-21T02:52:09;5.17;;;2.63;;
40503;SDS011;42292;49.048;8.374;2022-08-21T02:54:36;4.85;;;3.05;;
40503;SDS011;42292;49.048;8.374;2022-08-21T02:57:04;5.60;;;2.88;;
40503;SDS011;42292;49.048;8.374;2022-08-21T02:59:33;6.43;;;2.78;;
40503;SDS011;42292;49.048;8.374;2022-08-21T03:01:58;5.07;;;2.60;;
40503;SDS011;42292;49.048;8.374;2022-08-21T03:04:24;5.80;;;2.70;;
40503;SDS011;42292;49.048;8.374;2022-08-21T03:06:49;6.67;;;3.27;;
40503;SDS011;42292;49.048;8.374;2022-08-21T03:09:15;5.90;;;3.07;;
40503;SDS011;42292;49.048;8.374;2022-08-21T03:11:41;5.87;;;2.90;;
40503;SDS011;42292;49.048;8.374;2022-08-21T03:14:11;5.70;;;2.85;;
40503;SDS011;42292;49.048;8.374;2022-08-21T03:16:39;6.00;;;2.88;;
40503;SDS011;42292;49.048;8.374;2022-08-21T03:19:04;5.60;;;3.27;;
40503;SDS011;42292;49.048;8.374;2022-08-21T03:21:35;4.67;;;3.10;;
40503;SDS011;42292;49.048;8.374;2022-08-21T03:24:01;6.85;;;3.05;;
40503;SDS011;42292;49.048;8.374;2022-08-21T03:26:27;5.53;;;3.10;;
40503;SDS011;42292;49.048;8.374;2022-08-21T03:28:55;5.88;;;2.90;;
40503;SDS011;42292;49.048;8.374;2022-08-21T03:31:22;5.38;;;2.90;;
40503;SDS011;42292;49.048;8.374;2022-08-21T03:33:48;4.82;;;2.78;;
40503;SDS011;42292;49.048;8.374;2022-08-21T03:36:19;10.02;;;4.40;;
40503;SDS011;42292;49.048;8.374;2022-08-21T03:38:47;7.63;;;3.35;;
40503;SDS011;42292;49.048;8.374;2022-08-21T03:41:13;7.55;;;3.42;;
40503;SDS011;42292;49.048;8.374;2022-08-21T03:43:39;5.10;;;3.00;;
40503;SDS011;42292;49.048;8.374;2022-08-21T03:46:07;5.38;;;3.15;;
40503;SDS011;42292;49.048;8.374;2022-08-21T03:48:33;6.50;;;3.30;;
40503;SDS011;42292;49.048;8.374;2022-08-21T03:51:03;6.15;;;3.22;;
40503;SDS011;42292;49.048;8.374;2022-08-21T03:53:29;4.90;;;2.95;;
40503;SDS011;42292;49.048;8.374;2022-08-21T03:55:59;4.97;;;3.10;;
40503;SDS011;42292;49.048;8.374;2022-08-21T03:58:26;4.82;;;3.17;;
40503;SDS011;42292;49.048;8.374;2022-08-21T04:00:54;5.03;;;3.00;;
40503;SDS011;42292;49.048;8.374;2022-08-21T04:03:21;8.67;;;3.97;;
40503;SDS011;42292;49.048;8.374;2022-08-21T04:05:50;6.63;;;3.40;;
40503;SDS011;42292;49.048;8.374;2022-08-21T04:08:18;5.18;;;3.05;;
40503;SDS011;42292;49.048;8.374;2022-08-21T04:10:48;5.75;;;3.70;;
40503;SDS011;42292;49.048;8.374;2022-08-21T04:13:18;6.75;;;3.60;;
40503;SDS011;42292;49.048;8.374;2022-08-21T04:15:44;9.10;;;4.18;;
40503;SDS011;42292;49.048;8.374;2022-08-21T04:18:09;7.77;;;3.80;;
40503;SDS011;42292;49.048;8.374;2022-08-21T04:20:35;6.83;;;3.83;;
40503;SDS011;42292;49.048;8.374;2022-08-21T04:23:03;5.87;;;3.33;;
40503;SDS011;42292;49.048;8.374;2022-08-21T04:25:29;8.48;;;4.03;;
40503;SDS011;42292;49.048;8.374;2022-08-21T04:27:55;4.60;;;3.33;;
40503;SDS011;42292;49.048;8.374;2022-08-21T04:30:21;5.05;;;3.58;;
40503;SDS011;42292;49.048;8.374;2022-08-21T04:32:48;5.30;;;3.10;;
40503;SDS011;42292;49.048;8.374;2022-08-21T04:35:21;8.00;;;3.92;;
40503;SDS011;42292;49.048;8.374;2022-08-21T04:37:48;4.83;;;2.97;;
40503;SDS011;42292;49.048;8.374;2022-08-21T04:40:16;5.03;;;2.95;;
40503;SDS011;42292;49.048;8.374;2022-08-21T04:42:46;6.50;;;2.83;;
40503;SDS011;42292;49.048;8.374;2022-08-21T04:45:31;6.03;;;2.93;;
40503;SDS011;42292;49.048;8.374;2022-08-21T04:48:06;6.33;;;3.20;;
40503;SDS011;42292;49.048;8.374;2022-08-21T04:53:04;7.15;;;3.25;;
40503;SDS011;42292;49.048;8.374;2022-08-21T04:55:33;5.10;;;3.08;;
40503;SDS011;42292;49.048;8.374;2022-08-21T04:58:02;7.05;;;3.10;;
40503;SDS011;42292;49.048;8.374;2022-08-21T05:00:27;5.07;;;2.80;;
40503;SDS011;42292;49.048;8.374;2022-08-21T05:02:53;5.85;;;3.08;;
40503;SDS011;42292;49.048;8.374;2022-08-21T05:05:24;8.40;;;3.40;;
40503;SDS011;42292;49.048;8.374;2022-08-21T05:07:50;5.68;;;3.25;;
40503;SDS011;42292;49.048;8.374;2022-08-21T05:10:21;6.43;;;3.00;;
40503;SDS011;42292;49.048;8.374;2022-08-21T05:12:47;6.40;;;3.23;;
40503;SDS011;42292;49.048;8.374;2022-08-21T05:15:15;4.93;;;3.53;;
40503;SDS011;42292;49.048;8.374;2022-08-21T05:17:43;6.00;;;3.20;;
40503;SDS011;42292;49.048;8.374;2022-08-21T05:20:10;7.13;;;3.33;;
40503;SDS011;42292;49.048;8.374;2022-08-21T05:22:39;6.80;;;3.17;;
40503;SDS011;42292;49.048;8.374;2022-08-21T05:25:05;5.70;;;3.00;;
40503;SDS011;42292;49.048;8.374;2022-08-21T05:27:32;7.70;;;4.30;;
40503;SDS011;42292;49.048;8.374;2022-08-21T05:30:00;8.25;;;3.38;;
40503;SDS011;42292;49.048;8.374;2022-08-21T05:32:27;6.70;;;3.20;;
40503;SDS011;42292;49.048;8.374;2022-08-21T05:34:53;5.57;;;2.90;;
40503;SDS011;42292;49.048;8.374;2022-08-21T05:37:19;5.47;;;3.10;;
40503;SDS011;42292;49.048;8.374;2022-08-21T05:39:45;7.90;;;3.10;;
40503;SDS011;42292;49.048;8.374;2022-08-21T05:42:18;7.30;;;3.05;;
40503;SDS011;42292;49.048;8.374;2022-08-21T05:44:43;5.80;;;2.78;;
40503;SDS011;42292;49.048;8.374;2022-08-21T05:47:10;4.53;;;2.75;;
40503;SDS011;42292;49.048;8.374;2022-08-21T05:49:36;9.68;;;3.30;;
40503;SDS011;42292;49.048;8.374;2022-08-21T05:52:07;6.55;;;3.53;;
40503;SDS011;42292;49.048;8.374;2022-08-21T05:54:36;4.63;;;2.80;;
40503;SDS011;42292;49.048;8.374;2022-08-21T05:57:04;6.15;;;2.85;;
40503;SDS011;42292;49.048;8.374;2022-08-21T05:59:30;5.78;;;2.80;;
40503;SDS011;42292;49.048;8.374;2022-08-21T06:01:55;4.90;;;2.83;;
40503;SDS011;42292;49.048;8.374;2022-08-21T06:04:23;5.13;;;2.60;;
40503;SDS011;42292;49.048;8.374;2022-08-21T06:06:49;4.83;;;2.57;;
40503;SDS011;42292;49.048;8.374;2022-08-21T06:09:16;5.30;;;2.60;;
40503;SDS011;42292;49.048;8.374;2022-08-21T06:11:44;9.98;;;4.50;;
40503;SDS011;42292;49.048;8.374;2022-08-21T06:14:13;6.40;;;2.58;;
40503;SDS011;42292;49.048;8.374;2022-08-21T06:16:40;6.60;;;3.30;;
40503;SDS011;42292;49.048;8.374;2022-08-21T06:19:05;5.25;;;2.95;;
40503;SDS011;42292;49.048;8.374;2022-08-21T06:21:31;4.57;;;2.77;;
40503;SDS011;42292;49.048;8.374;2022-08-21T06:23:59;6.83;;;2.83;;
40503;SDS011;42292;49.048;8.374;2022-08-21T06:26:25;8.60;;;2.80;;
40503;SDS011;42292;49.048;8.374;2022-08-21T06:28:55;4.68;;;2.40;;
40503;SDS011;42292;49.048;8.374;2022-08-21T06:31:21;6.32;;;2.67;;
40503;SDS011;42292;49.048;8.374;2022-08-21T06:33:51;5.57;;;2.97;;
40503;SDS011;42292;49.048;8.374;2022-08-21T06:36:18;5.85;;;2.42;;
40503;SDS011;42292;49.048;8.374;2022-08-21T06:38:46;5.82;;;3.05;;
40503;SDS011;42292;49.048;8.374;2022-08-21T06:41:12;6.38;;;2.75;;
40503;SDS011;42292;49.048;8.374;2022-08-21T06:43:40;5.95;;;2.60;;
40503;SDS011;42292;49.048;8.374;2022-08-21T06:46:06;5.57;;;2.77;;
40503;SDS011;42292;49.048;8.374;2022-08-21T06:48:34;7.93;;;2.75;;
40503;SDS011;42292;49.048;8.374;2022-08-21T06:51:00;7.53;;;2.97;;
40503;SDS011;42292;49.048;8.374;2022-08-21T06:53:26;5.78;;;2.55;;
40503;SDS011;42292;49.048;8.374;2022-08-21T06:55:52;8.30;;;3.00;;
40503;SDS011;42292;49.048;8.374;2022-08-21T06:58:18;5.65;;;2.67;;
40503;SDS011;42292;49.048;8.374;2022-08-21T07:00:46;5.15;;;3.03;;
40503;SDS011;42292;49.048;8.374;2022-08-21T07:03:19;6.35;;;2.60;;
40503;SDS011;42292;49.048;8.374;2022-08-21T07:05:47;5.82;;;3.50;;
40503;SDS011;42292;49.048;8.374;2022-08-21T07:08:13;5.70;;;2.80;;
40503;SDS011;42292;49.048;8.374;2022-08-21T07:10:39;5.10;;;2.60;;
40503;SDS011;42292;49.048;8.374;2022-08-21T07:13:07;8.53;;;3.20;;
40503;SDS011;42292;49.048;8.374;2022-08-21T07:15:33;6.03;;;2.80;;
40503;SDS011;42292;49.048;8.374;2022-08-21T07:17:58;6.13;;;2.50;;
40503;SDS011;42292;49.048;8.374;2022-08-21T07:20:25;5.63;;;2.35;;
40503;SDS011;42292;49.048;8.374;2022-08-21T07:22:52;6.20;;;2.90;;
40503;SDS011;42292;49.048;8.374;2022-08-21T07:25:18;5.88;;;3.10;;
40503;SDS011;42292;49.048;8.374;2022-08-21T07:27:44;6.97;;;2.50;;
40503;SDS011;42292;49.048;8.374;2022-08-21T07:30:10;6.35;;;2.83;;
40503;SDS011;42292;49.048;8.374;2022-08-21T07:32:39;6.72;;;2.63;;
40503;SDS011;42292;49.048;8.374;2022-08-21T07:35:07;7.68;;;2.30;;
40503;SDS011;42292;49.048;8.374;2022-08-21T07:37:37;6.78;;;2.80;;
40503;SDS011;42292;49.048;8.374;2022-08-21T07:40:03;5.53;;;2.83;;
40503;SDS011;42292;49.048;8.374;2022-08-21T07:42:30;6.25;;;2.55;;
40503;SDS011;42292;49.048;8.374;2022-08-21T07:44:55;7.20;;;2.92;;
40503;SDS011;42292;49.048;8.374;2022-08-21T07:47:21;5.68;;;2.13;;
40503;SDS011;42292;49.048;8.374;2022-08-21T07:49:46;6.57;;;2.75;;
40503;SDS011;42292;49.048;8.374;2022-08-21T07:52:14;5.88;;;2.38;;
40503;SDS011;42292;49.048;8.374;2022-08-21T07:54:40;4.55;;;2.67;;
40503;SDS011;42292;49.048;8.374;2022-08-21T07:57:08;6.17;;;2.63;;
40503;SDS011;42292;49.048;8.374;2022-08-21T07:59:36;5.63;;;2.38;;
40503;SDS011;42292;49.048;8.374;2022-08-21T08:02:02;7.40;;;2.92;;
40503;SDS011;42292;49.048;8.374;2022-08-21T08:04:27;8.38;;;2.78;;
40503;SDS011;42292;49.048;8.374;2022-08-21T08:06:53;9.07;;;3.38;;
40503;SDS011;42292;49.048;8.374;2022-08-21T08:09:21;7.40;;;3.20;;
40503;SDS011;42292;49.048;8.374;2022-08-21T08:11:47;6.15;;;2.50;;
40503;SDS011;42292;49.048;8.374;2022-08-21T08:14:12;5.20;;;2.60;;
40503;SDS011;42292;49.048;8.374;2022-08-21T08:16:38;7.72;;;2.83;;
40503;SDS011;42292;49.048;8.374;2022-08-21T08:19:03;5.18;;;2.70;;
40503;SDS011;42292;49.048;8.374;2022-08-21T08:21:29;6.25;;;2.38;;
40503;SDS011;42292;49.048;8.374;2022-08-21T08:23:55;6.90;;;2.83;;
40503;SDS011;42292;49.048;8.374;2022-08-21T08:26:20;8.05;;;2.70;;
40503;SDS011;42292;49.048;8.374;2022-08-21T08:28:47;5.55;;;2.88;;
40503;SDS011;42292;49.048;8.374;2022-08-21T08:31:13;7.93;;;3.13;;
40503;SDS011;42292;49.048;8.374;2022-08-21T08:33:41;6.85;;;2.88;;
40503;SDS011;42292;49.048;8.374;2022-08-21T08:36:12;6.38;;;2.88;;
40503;SDS011;42292;49.048;8.374;2022-08-21T08:38:39;7.95;;;2.72;;
40503;SDS011;42292;49.048;8.374;2022-08-21T08:41:08;7.63;;;2.85;;
40503;SDS011;42292;49.048;8.374;2022-08-21T08:43:38;6.78;;;2.95;;
40503;SDS011;42292;49.048;8.374;2022-08-21T08:46:06;5.78;;;2.47;;
40503;SDS011;42292;49.048;8.374;2022-08-21T08:48:41;8.23;;;3.03;;
40503;SDS011;42292;49.048;8.374;2022-08-21T08:54:31;8.85;;;3.40;;
40503;SDS011;42292;49.048;8.374;2022-08-21T08:57:07;5.93;;;2.70;;
40503;SDS011;42292;49.048;8.374;2022-08-21T08:59:42;6.23;;;3.27;;
40503;SDS011;42292;49.048;8.374;2022-08-21T09:02:12;8.57;;;2.88;;
40503;SDS011;42292;49.048;8.374;2022-08-21T09:04:39;6.47;;;3.30;;
40503;SDS011;42292;49.048;8.374;2022-08-21T09:07:16;9.38;;;2.97;;
40503;SDS011;42292;49.048;8.374;2022-08-21T09:20:29;6.50;;;3.10;;
40503;SDS011;42292;49.048;8.374;2022-08-21T09:26:07;5.78;;;2.60;;
40503;SDS011;42292;49.048;8.374;2022-08-21T09:28:38;9.68;;;2.92;;
40503;SDS011;42292;49.048;8.374;2022-08-21T09:31:07;7.22;;;2.60;;
40503;SDS011;42292;49.048;8.374;2022-08-21T09:33:40;4.78;;;2.85;;
40503;SDS011;42292;49.048;8.374;2022-08-21T09:36:08;7.63;;;3.00;;
40503;SDS011;42292;49.048;8.374;2022-08-21T09:38:37;8.18;;;2.90;;
40503;SDS011;42292;49.048;8.374;2022-08-21T09:41:04;7.63;;;3.03;;
40503;SDS011;42292;49.048;8.374;2022-08-21T09:43:34;7.57;;;2.85;;
40503;SDS011;42292;49.048;8.374;2022-08-21T09:48:43;7.22;;;2.40;;
40503;SDS011;42292;49.048;8.374;2022-08-21T09:51:15;6.45;;;2.70;;
40503;SDS011;42292;49.048;8.374;2022-08-21T09:53:45;6.25;;;2.95;;
40503;SDS011;42292;49.048;8.374;2022-08-21T09:56:17;5.82;;;2.67;;
40503;SDS011;42292;49.048;8.374;2022-08-21T09:59:18;5.50;;;2.78;;
40503;SDS011;42292;49.048;8.374;2022-08-21T10:01:58;6.15;;;2.97;;
40503;SDS011;42292;49.048;8.374;2022-08-21T10:04:32;8.40;;;2.90;;
40503;SDS011;42292;49.048;8.374;2022-08-21T10:07:11;6.15;;;2.50;;
40503;SDS011;42292;49.048;8.374;2022-08-21T10:09:40;6.00;;;3.15;;
40503;SDS011;42292;49.048;8.374;2022-08-21T10:14:57;5.80;;;3.00;;
40503;SDS011;42292;49.048;8.374;2022-08-21T10:17:34;7.35;;;2.85;;
40503;SDS011;42292;49.048;8.374;2022-08-21T10:20:27;9.02;;;3.05;;
40503;SDS011;42292;49.048;8.374;2022-08-21T10:25:26;6.38;;;2.50;;
40503;SDS011;42292;49.048;8.374;2022-08-21T10:31:29;5.35;;;2.45;;
40503;SDS011;42292;49.048;8.374;2022-08-21T10:36:25;8.07;;;2.73;;
40503;SDS011;42292;49.048;8.374;2022-08-21T10:47:08;6.70;;;2.70;;
40503;SDS011;42292;49.048;8.374;2022-08-21T10:49:55;4.53;;;2.40;;
40503;SDS011;42292;49.048;8.374;2022-08-21T10:52:51;4.82;;;2.40;;
40503;SDS011;42292;49.048;8.374;2022-08-21T10:55:52;6.07;;;2.70;;
40503;SDS011;42292;49.048;8.374;2022-08-21T11:01:04;6.33;;;2.57;;
40503;SDS011;42292;49.048;8.374;2022-08-21T11:03:48;6.60;;;2.80;;
40503;SDS011;42292;49.048;8.374;2022-08-21T11:06:24;5.57;;;2.30;;
40503;SDS011;42292;49.048;8.374;2022-08-21T11:08:55;4.20;;;2.63;;
40503;SDS011;42292;49.048;8.374;2022-08-21T11:11:29;6.32;;;3.00;;
40503;SDS011;42292;49.048;8.374;2022-08-21T11:14:03;4.43;;;2.40;;
40503;SDS011;42292;49.048;8.374;2022-08-21T11:29:31;5.40;;;2.47;;
40503;SDS011;42292;49.048;8.374;2022-08-21T11:32:24;5.57;;;2.00;;
40503;SDS011;42292;49.048;8.374;2022-08-21T11:43:46;4.30;;;1.65;;
40503;SDS011;42292;49.048;8.374;2022-08-21T11:46:28;2.97;;;1.50;;
40503;SDS011;42292;49.048;8.374;2022-08-21T11:49:11;4.13;;;1.55;;
40503;SDS011;42292;49.048;8.374;2022-08-21T11:51:46;3.88;;;1.85;;
40503;SDS011;42292;49.048;8.374;2022-08-21T11:57:38;4.13;;;1.67;;
40503;SDS011;42292;49.048;8.374;2022-08-21T11:59:49;4.05;;;1.85;;
40503;SDS011;42292;49.048;8.374;2022-08-21T12:02:24;4.60;;;1.80;;
40503;SDS011;42292;49.048;8.374;2022-08-21T12:04:56;4.80;;;1.92;;
40503;SDS011;42292;49.048;8.374;2022-08-21T12:09:58;3.85;;;1.88;;
40503;SDS011;42292;49.048;8.374;2022-08-21T12:12:33;4.37;;;2.00;;
40503;SDS011;42292;49.048;8.374;2022-08-21T12:17:52;3.00;;;1.63;;
40503;SDS011;42292;49.048;8.374;2022-08-21T12:23:23;4.57;;;2.10;;
40503;SDS011;42292;49.048;8.374;2022-08-21T12:25:41;3.58;;;1.98;;
40503;SDS011;42292;49.048;8.374;2022-08-21T12:28:25;4.73;;;2.00;;
40503;SDS011;42292;49.048;8.374;2022-08-21T12:30:57;5.32;;;2.03;;
40503;SDS011;42292;49.048;8.374;2022-08-21T12:33:27;4.65;;;2.05;;
40503;SDS011;42292;49.048;8.374;2022-08-21T12:36:12;4.00;;;2.10;;
40503;SDS011;42292;49.048;8.374;2022-08-21T12:38:50;3.60;;;1.77;;
40503;SDS011;42292;49.048;8.374;2022-08-21T12:41:30;3.88;;;1.77;;
40503;SDS011;42292;49.048;8.374;2022-08-21T12:44:00;3.33;;;1.88;;
40503;SDS011;42292;49.048;8.374;2022-08-21T12:46:34;8.30;;;3.03;;
40503;SDS011;42292;49.048;8.374;2022-08-21T12:49:07;5.93;;;2.28;;
40503;SDS011;42292;49.048;8.374;2022-08-21T12:51:59;6.88;;;2.55;;
40503;SDS011;42292;49.048;8.374;2022-08-21T12:54:45;5.85;;;2.50;;
40503;SDS011;42292;49.048;8.374;2022-08-21T12:57:44;5.38;;;2.17;;
40503;SDS011;42292;49.048;8.374;2022-08-21T13:00:20;5.60;;;2.30;;
40503;SDS011;42292;49.048;8.374;2022-08-21T13:02:48;3.80;;;2.08;;
40503;SDS011;42292;49.048;8.374;2022-08-21T13:05:35;3.95;;;2.35;;
40503;SDS011;42292;49.048;8.374;2022-08-21T13:08:03;4.10;;;1.97;;
40503;SDS011;42292;49.048;8.374;2022-08-21T13:10:31;3.45;;;2.10;;
40503;SDS011;42292;49.048;8.374;2022-08-21T13:13:02;4.65;;;2.47;;
40503;SDS011;42292;49.048;8.374;2022-08-21T13:15:34;3.90;;;2.15;;
40503;SDS011;42292;49.048;8.374;2022-08-21T13:18:05;6.07;;;2.10;;
40503;SDS011;42292;49.048;8.374;2022-08-21T13:20:44;4.88;;;2.38;;
40503;SDS011;42292;49.048;8.374;2022-08-21T13:23:27;4.05;;;2.35;;
40503;SDS011;42292;49.048;8.374;2022-08-21T13:25:54;6.20;;;2.30;;
40503;SDS011;42292;49.048;8.374;2022-08-21T13:28:21;5.78;;;2.22;;
40503;SDS011;42292;49.048;8.374;2022-08-21T13:30:48;3.85;;;1.98;;
40503;SDS011;42292;49.048;8.374;2022-08-21T13:33:20;6.28;;;2.50;;
40503;SDS011;42292;49.048;8.374;2022-08-21T13:38:31;5.75;;;2.22;;
40503;SDS011;42292;49.048;8.374;2022-08-21T13:41:02;4.10;;;2.15;;
40503;SDS011;42292;49.048;8.374;2022-08-21T13:43:44;5.45;;;2.30;;
40503;SDS011;42292;49.048;8.374;2022-08-21T13:46:13;4.13;;;2.20;;
40503;SDS011;42292;49.048;8.374;2022-08-21T13:48:42;4.10;;;2.10;;
40503;SDS011;42292;49.048;8.374;2022-08-21T13:51:10;7.10;;;2.22;;
40503;SDS011;42292;49.048;8.374;2022-08-21T13:53:45;3.27;;;2.10;;
40503;SDS011;42292;49.048;8.374;2022-08-21T13:58:55;3.83;;;2.20;;
40503;SDS011;42292;49.048;8.374;2022-08-21T14:03:52;4.93;;;2.00;;
40503;SDS011;42292;49.048;8.374;2022-08-21T14:06:26;4.53;;;2.00;;
40503;SDS011;42292;49.048;8.374;2022-08-21T14:08:59;3.67;;;1.90;;
40503;SDS011;42292;49.048;8.374;2022-08-21T14:11:32;3.75;;;1.95;;
40503;SDS011;42292;49.048;8.374;2022-08-21T14:14:00;5.80;;;2.00;;
40503;SDS011;42292;49.048;8.374;2022-08-21T14:16:41;3.70;;;1.80;;
40503;SDS011;42292;49.048;8.374;2022-08-21T14:19:45;4.13;;;2.25;;
40503;SDS011;42292;49.048;8.374;2022-08-21T14:25:10;4.82;;;2.20;;
40503;SDS011;42292;49.048;8.374;2022-08-21T14:27:52;3.60;;;2.00;;
40503;SDS011;42292;49.048;8.374;2022-08-21T14:30:43;4.75;;;1.90;;
40503;SDS011;42292;49.048;8.374;2022-08-21T14:33:11;4.75;;;2.40;;
40503;SDS011;42292;49.048;8.374;2022-08-21T14:35:39;3.90;;;2.08;;
40503;SDS011;42292;49.048;8.374;2022-08-21T14:38:14;4.75;;;1.80;;
40503;SDS011;42292;49.048;8.374;2022-08-21T14:40:44;5.15;;;1.83;;
40503;SDS011;42292;49.048;8.374;2022-08-21T14:43:14;4.13;;;1.90;;
40503;SDS011;42292;49.048;8.374;2022-08-21T14:45:39;3.13;;;1.60;;
40503;SDS011;42292;49.048;8.374;2022-08-21T14:48:08;4.40;;;1.83;;
40503;SDS011;42292;49.048;8.374;2022-08-21T14:50:34;6.72;;;1.80;;
40503;SDS011;42292;49.048;8.374;2022-08-21T14:53:00;2.25;;;1.70;;
40503;SDS011;42292;49.048;8.374;2022-08-21T14:55:26;3.22;;;1.60;;
40503;SDS011;42292;49.048;8.374;2022-08-21T14:57:58;3.10;;;1.57;;
40503;SDS011;42292;49.048;8.374;2022-08-21T15:00:27;2.47;;;1.65;;
40503;SDS011;42292;49.048;8.374;2022-08-21T15:02:55;3.33;;;1.60;;
40503;SDS011;42292;49.048;8.374;2022-08-21T15:05:23;3.30;;;1.48;;
40503;SDS011;42292;49.048;8.374;2022-08-21T15:07:48;2.95;;;1.58;;
40503;SDS011;42292;49.048;8.374;2022-08-21T15:10:14;2.60;;;1.70;;
40503;SDS011;42292;49.048;8.374;2022-08-21T15:12:40;3.97;;;1.67;;
40503;SDS011;42292;49.048;8.374;2022-08-21T15:15:06;2.70;;;1.60;;
40503;SDS011;42292;49.048;8.374;2022-08-21T15:17:35;2.63;;;1.65;;
40503;SDS011;42292;49.048;8.374;2022-08-21T15:20:01;4.18;;;1.88;;
40503;SDS011;42292;49.048;8.374;2022-08-21T15:22:26;5.80;;;1.70;;
40503;SDS011;42292;49.048;8.374;2022-08-21T15:24:52;2.80;;;1.70;;
40503;SDS011;42292;49.048;8.374;2022-08-21T15:27:18;2.27;;;1.83;;
40503;SDS011;42292;49.048;8.374;2022-08-21T15:29:43;2.33;;;1.70;;
40503;SDS011;42292;49.048;8.374;2022-08-21T15:32:17;3.08;;;1.75;;
40503;SDS011;42292;49.048;8.374;2022-08-21T15:34:50;3.63;;;1.50;;
40503;SDS011;42292;49.048;8.374;2022-08-21T15:37:16;2.17;;;1.40;;
40503;SDS011;42292;49.048;8.374;2022-08-21T15:39:44;2.83;;;1.50;;
40503;SDS011;42292;49.048;8.374;2022-08-21T15:42:10;2.95;;;1.33;;
40503;SDS011;42292;49.048;8.374;2022-08-21T15:44:38;2.90;;;1.40;;
40503;SDS011;42292;49.048;8.374;2022-08-21T15:47:11;2.92;;;1.70;;
40503;SDS011;42292;49.048;8.374;2022-08-21T15:49:42;4.47;;;1.80;;
40503;SDS011;42292;49.048;8.374;2022-08-21T15:52:16;2.00;;;1.23;;
40503;SDS011;42292;49.048;8.374;2022-08-21T15:54:43;3.00;;;1.60;;
40503;SDS011;42292;49.048;8.374;2022-08-21T15:57:12;2.20;;;1.60;;
40503;SDS011;42292;49.048;8.374;2022-08-21T15:59:43;3.00;;;1.70;;
40503;SDS011;42292;49.048;8.374;2022-08-21T16:02:15;2.50;;;1.60;;
40503;SDS011;42292;49.048;8.374;2022-08-21T16:04:46;2.53;;;1.42;;
40503;SDS011;42292;49.048;8.374;2022-08-21T16:07:12;3.00;;;1.60;;
40503;SDS011;42292;49.048;8.374;2022-08-21T16:09:38;3.85;;;1.67;;
40503;SDS011;42292;49.048;8.374;2022-08-21T16:12:04;3.00;;;1.70;;
40503;SDS011;42292;49.048;8.374;2022-08-21T16:14:31;2.83;;;1.50;;
40503;SDS011;42292;49.048;8.374;2022-08-21T16:16:59;3.50;;;1.70;;
40503;SDS011;42292;49.048;8.374;2022-08-21T16:19:25;4.37;;;1.53;;
40503;SDS011;42292;49.048;8.374;2022-08-21T16:21:55;2.60;;;1.60;;
40503;SDS011;42292;49.048;8.374;2022-08-21T16:24:21;2.65;;;1.40;;
40503;SDS011;42292;49.048;8.374;2022-08-21T16:26:47;2.93;;;1.70;;
40503;SDS011;42292;49.048;8.374;2022-08-21T16:29:18;3.85;;;1.63;;
40503;SDS011;42292;49.048;8.374;2022-08-21T16:31:45;3.25;;;1.50;;
40503;SDS011;42292;49.048;8.374;2022-08-21T16:34:19;3.38;;;1.75;;